Tucson, AZ

1:13 PM MST on January 31, 2015 (GMT -0700)
UA WRRC WEATHER | Change Station
CLOSE
Current Station
Personal Weather Station
Location: Tucson, AZ
Elevation: 2431 ft
Nearby Weather Stations

Elev 2431 ft 32.23 °N, 110.94 °W | Updated 4 minutes ago

Overcast
Overcast
54.6 °F
Feels Like 54.6 °F
N
0.0
Wind Variable Wind from NNE
Gusts 5.0 mph

Today
High -- | Low -- °F
--% Chance of Precip.
Yesterday
High -- | Low -- °F
Precip. -- in
7:18 AM 5:56 PM
Waxing Gibbous, 91% visible
Pressure 29.84 in
Visibility 10.0 miles
Clouds Overcast 4200 ft
Dew Point 51 °F
Humidity 87%
Rainfall 0.36 in
Snow Depth Not available.
UV 2 out of 12
Pollen .50 out of 12
Air Quality Not available.
Flu Activity Not available.
SPECI KDMA 312002Z AUTO 03006KT 10SM -DZ OVC042 12/10 A2984 RMK AO2 DZB02 $

More Conditions Fewer Conditions

Pressure 29.84 in
Visibility 10.0 miles
Clouds Overcast 4200 ft
Dew Point 51 °F
Humidity 87%
Rainfall 0.36 in
Snow Depth Not available.
UV 2 out of 12
Pollen .50 out of 12
Air Quality Not available.
Flu Activity Not available.
SPECI KDMA 312002Z AUTO 03006KT 10SM -DZ OVC042 12/10 A2984 RMK AO2 DZB02 $

More Conditions Fewer Conditions

Nowcast | as of 10:57 am MST on January 31, 2015

Showers will continue across much of Southeast Arizona through the early afternoon. The most persistent rain will be from Tucson northward with more scattered showers closer to the international border. A rumble or two of thunder can't be ruled out. Rainfall rates will generally be up to 0.2 inches perhour. Movement of the showers is generally to the north at 10 to 15 mph. Periods of snow will continue in the mountains above 7500 feet.

×

10-Day Weather Forecast

Almanac

Astronomy

Jan. 31, 2015 Rise Set
Actual Time
Civil Twilight
Nautical Twilight
Astronomical Twilight
Moon
Length of Visible Light
Length of Day
Tomorrow will be .
, % of the Moon is Illuminated

Today's Extremes

State Highs State Lows

Community

WunderPhotos

Upload Photos

1,792,173 photos uploaded!

WunderBlogs® & News

Nearby

Air Quality

  Air Quality AQ Index Pollutant
Not available.

Snow Depth

Station Depth Elevation

Earthquake Activity

City Distance Mag. Time & Date
Minimum magnitude displayed is 2.5.

Coastal Water Temperatures

Place Temperature

Nearby Weather Stations